Time;durP1;ratioP1;P1;durP2;ratioP2;P2;SDS_P1;SDS_P2;PMS_P1;PMS_P2;Temp;Humidity;BMP_temperature;BMP_pressure;BME280_temperature;BME280_humidity;BME280_pressure;Samples;Min_cycle;Max_cycle;Signal;HPM_P1;HPM_P2
2023/09/19 00:01:08;;;;;;;1.00;0.40;;;22.80;50.30;;;;;;4976247;28;20411;-49
2023/09/19 00:03:37;;;;;;;1.20;0.50;;;22.80;50.30;;;;;;4976261;28;20413;-50
2023/09/19 00:06:07;;;;;;;1.00;0.50;;;22.80;50.40;;;;;;4976527;28;20407;-50
2023/09/19 00:08:34;;;;;;;1.00;0.40;;;22.80;50.50;;;;;;4976509;28;20468;-50
2023/09/19 00:11:05;;;;;;;1.00;0.47;;;22.80;50.30;;;;;;4976245;28;20411;-51
2023/09/19 00:13:35;;;;;;;1.00;0.40;;;22.80;50.50;;;;;;4976311;28;20466;-49
2023/09/19 00:16:08;;;;;;;1.10;0.50;;;22.70;50.30;;;;;;4976076;28;20408;-50
2023/09/19 00:18:34;;;;;;;3.63;1.10;;;22.70;50.40;;;;;;4976186;28;20447;-50
2023/09/19 00:21:00;;;;;;;1.10;0.50;;;22.60;50.40;;;;;;4976072;28;20415;-49
2023/09/19 00:23:28;;;;;;;1.63;0.90;;;22.50;50.50;;;;;;4976050;28;20427;-49
2023/09/19 00:25:57;;;;;;;1.00;0.30;;;22.50;50.60;;;;;;4975816;28;20615;-50
2023/09/19 00:28:23;;;;;;;1.00;0.50;;;22.50;50.60;;;;;;4976020;28;20422;-50
2023/09/19 00:30:51;;;;;;;1.10;0.50;;;22.50;50.60;;;;;;4975953;28;20767;-50
2023/09/19 00:33:18;;;;;;;1.00;0.30;;;22.50;50.60;;;;;;4975815;28;20898;-49
2023/09/19 00:35:54;;;;;;;1.00;0.30;;;22.50;50.60;;;;;;4975895;28;20419;-50
2023/09/19 00:38:22;;;;;;;1.00;0.40;;;22.50;50.60;;;;;;4976004;28;20453;-50
2023/09/19 00:40:51;;;;;;;1.00;0.30;;;22.50;50.60;;;;;;4975661;28;20412;-50
2023/09/19 00:43:16;;;;;;;1.00;0.40;;;22.40;50.40;;;;;;4975730;28;20869;-49
2023/09/19 00:45:45;;;;;;;1.10;0.40;;;22.40;50.50;;;;;;4976077;28;20482;-50
2023/09/19 00:48:11;;;;;;;1.07;0.50;;;22.40;50.50;;;;;;4975660;28;20168;-50
2023/09/19 00:50:41;;;;;;;1.10;0.50;;;22.40;50.50;;;;;;4975586;28;20399;-50
2023/09/19 00:53:08;;;;;;;1.33;0.67;;;22.40;50.50;;;;;;4975446;28;20403;-50
2023/09/19 00:55:34;;;;;;;1.10;0.60;;;22.30;50.40;;;;;;4974851;28;20411;-50
2023/09/19 00:58:00;;;;;;;1.37;0.70;;;22.40;50.30;;;;;;4975471;28;20514;-50
2023/09/19 01:00:26;;;;;;;1.00;0.40;;;22.30;50.30;;;;;;4975393;28;20482;-50
2023/09/19 01:02:52;;;;;;;1.17;0.60;;;22.30;50.20;;;;;;4975324;28;20494;-50
2023/09/19 01:05:18;;;;;;;1.10;0.60;;;22.40;50.50;;;;;;4975346;28;21049;-50
2023/09/19 01:07:45;;;;;;;1.10;0.50;;;22.30;50.60;;;;;;4975268;28;20701;-50
2023/09/19 01:10:14;;;;;;;1.40;0.73;;;22.30;50.80;;;;;;4975178;28;20439;-51
2023/09/19 01:13:01;;;;;;;1.10;0.73;;;22.30;50.70;;;;;;4975234;28;20403;-50
2023/09/19 01:16:04;;;;;;;1.30;0.80;;;22.30;50.60;;;;;;4975293;28;20418;-50
2023/09/19 01:18:44;;;;;;;1.10;0.60;;;22.30;50.60;;;;;;4975120;28;20508;-50
2023/09/19 01:21:35;;;;;;;1.20;0.70;;;22.30;50.60;;;;;;4974888;28;20430;-51
2023/09/19 01:24:38;;;;;;;1.00;0.40;;;22.20;50.70;;;;;;4974948;28;20450;-50
2023/09/19 01:27:20;;;;;;;1.10;0.50;;;22.20;50.70;;;;;;4974557;28;20454;-50
2023/09/19 01:29:49;;;;;;;3.53;0.90;;;22.20;50.80;;;;;;4974970;28;20400;-50
2023/09/19 01:32:21;;;;;;;1.00;0.40;;;22.20;51.00;;;;;;4974687;28;20408;-50
2023/09/19 01:35:03;;;;;;;1.13;0.60;;;22.20;50.60;;;;;;4974864;28;20422;-51
2023/09/19 01:37:31;;;;;;;1.03;0.50;;;22.20;50.60;;;;;;4974762;28;20424;-50
2023/09/19 01:40:24;;;;;;;1.00;0.40;;;22.10;51.10;;;;;;4974724;28;20419;-51
2023/09/19 01:43:21;;;;;;;1.97;0.63;;;22.10;51.00;;;;;;4974128;28;20422;-51
2023/09/19 01:46:02;;;;;;;1.07;0.50;;;22.10;50.70;;;;;;4974462;28;20892;-50
2023/09/19 01:48:40;;;;;;;1.00;0.40;;;22.10;50.80;;;;;;4974752;28;20411;-50
2023/09/19 01:51:07;;;;;;;1.00;0.40;;;22.10;51.10;;;;;;4974398;28;20403;-50
2023/09/19 01:53:48;;;;;;;1.00;0.40;;;22.10;51.20;;;;;;4974343;28;20407;-50
2023/09/19 01:56:30;;;;;;;1.00;0.40;;;22.10;51.20;;;;;;4974363;28;20953;-51
2023/09/19 01:59:03;;;;;;;1.10;0.50;;;22.10;51.00;;;;;;4974370;28;20921;-50
2023/09/19 02:01:31;;;;;;;1.67;0.77;;;22.10;51.30;;;;;;4974093;28;20414;-50
2023/09/19 02:03:58;;;;;;;1.17;0.60;;;22.10;51.30;;;;;;4974170;28;20459;-49
2023/09/19 02:06:25;;;;;;;1.00;0.33;;;22.10;50.90;;;;;;4973576;28;20490;-51
2023/09/19 02:08:50;;;;;;;1.20;0.43;;;22.10;51.00;;;;;;4973812;28;20747;-50
2023/09/19 02:11:16;;;;;;;1.10;0.60;;;22.10;51.00;;;;;;4974069;28;20498;-49
2023/09/19 02:13:42;;;;;;;1.63;1.17;;;22.10;50.90;;;;;;4973969;28;20204;-50
2023/09/19 02:16:10;;;;;;;2.40;1.30;;;22.00;51.00;;;;;;4973898;28;20192;-50
2023/09/19 02:18:36;;;;;;;1.00;0.40;;;22.00;50.90;;;;;;4974086;28;20407;-50
2023/09/19 02:21:03;;;;;;;1.87;0.90;;;21.90;51.20;;;;;;4973843;28;20932;-52
2023/09/19 02:23:30;;;;;;;1.00;0.40;;;21.90;51.20;;;;;;4974045;28;20172;-49
2023/09/19 02:26:04;;;;;;;1.87;0.77;;;22.00;51.30;;;;;;4973625;28;20459;-49
2023/09/19 02:28:30;;;;;;;1.10;0.50;;;22.00;51.20;;;;;;4973789;28;20503;-53
2023/09/19 02:30:56;;;;;;;1.00;0.50;;;22.00;51.10;;;;;;4973714;28;20916;-49
2023/09/19 02:33:22;;;;;;;1.00;0.40;;;22.10;51.30;;;;;;4973471;28;20419;-51
2023/09/19 02:35:48;;;;;;;1.10;0.67;;;22.00;51.20;;;;;;4973791;28;20416;-51
2023/09/19 02:38:18;;;;;;;1.00;0.30;;;22.00;51.40;;;;;;4973841;28;20751;-49
2023/09/19 02:40:44;;;;;;;1.00;0.40;;;22.00;51.10;;;;;;4973668;28;20808;-47
2023/09/19 02:43:09;;;;;;;2.83;0.73;;;22.00;50.80;;;;;;4973429;28;20446;-48
2023/09/19 02:45:35;;;;;;;1.00;0.30;;;22.00;51.00;;;;;;4973595;28;20974;-48
2023/09/19 02:48:02;;;;;;;1.30;0.73;;;22.00;51.10;;;;;;4973417;28;20239;-48
2023/09/19 02:50:28;;;;;;;1.00;0.40;;;22.10;50.80;;;;;;4973690;28;20424;-48
2023/09/19 02:52:54;;;;;;;1.50;0.50;;;22.10;51.00;;;;;;4973258;28;20441;-49
2023/09/19 02:55:21;;;;;;;1.73;0.80;;;22.10;50.60;;;;;;4973408;28;20419;-50
2023/09/19 02:57:52;;;;;;;1.10;0.53;;;22.10;50.70;;;;;;4973409;28;20435;-47
2023/09/19 03:00:22;;;;;;;1.60;0.50;;;22.10;50.60;;;;;;4973403;28;20902;-50
2023/09/19 03:02:49;;;;;;;1.00;0.50;;;22.10;50.60;;;;;;4973180;28;20411;-51
2023/09/19 03:05:15;;;;;;;1.00;0.40;;;22.10;51.10;;;;;;4973205;28;20989;-49
2023/09/19 03:07:42;;;;;;;1.30;0.80;;;22.10;51.00;;;;;;4973368;28;20861;-50
2023/09/19 03:10:09;;;;;;;1.00;0.40;;;22.10;50.70;;;;;;4973275;28;20751;-51
2023/09/19 03:12:35;;;;;;;1.00;0.40;;;22.10;51.00;;;;;;4973025;28;20415;-50
2023/09/19 03:15:02;;;;;;;1.00;0.40;;;22.10;50.60;;;;;;4973062;28;20494;-50
2023/09/19 03:17:27;;;;;;;1.03;0.53;;;22.00;50.60;;;;;;4973354;28;20439;-50
2023/09/19 03:19:53;;;;;;;1.00;0.40;;;22.00;50.40;;;;;;4979356;28;20956;-51
2023/09/19 03:22:19;;;;;;;1.00;0.40;;;22.10;50.40;;;;;;4979479;28;20183;-47
2023/09/19 03:24:46;;;;;;;1.00;0.40;;;22.10;50.40;;;;;;4979447;28;20881;-50
2023/09/19 03:27:16;;;;;;;1.00;0.40;;;22.10;50.60;;;;;;4979384;28;20578;-51
2023/09/19 03:29:43;;;;;;;1.00;0.50;;;22.10;50.60;;;;;;4979370;28;20535;-49
2023/09/19 03:32:10;;;;;;;1.00;0.50;;;22.20;50.40;;;;;;4979301;28;20490;-51
2023/09/19 03:34:43;;;;;;;1.00;0.33;;;22.20;50.10;;;;;;4979630;28;20254;-49
2023/09/19 03:37:09;;;;;;;1.00;0.40;;;22.20;50.40;;;;;;4979495;28;20431;-51
2023/09/19 03:39:35;;;;;;;1.10;0.50;;;22.10;50.40;;;;;;4979403;28;20415;-49
2023/09/19 03:42:03;;;;;;;1.00;0.40;;;22.10;50.20;;;;;;4979123;28;20411;-50
2023/09/19 03:44:30;;;;;;;1.00;0.33;;;22.10;50.50;;;;;;4979272;28;20467;-50
2023/09/19 03:46:56;;;;;;;0.97;0.47;;;22.10;50.20;;;;;;4979438;28;20494;-50
2023/09/19 03:49:22;;;;;;;1.00;0.50;;;22.10;50.70;;;;;;4979469;28;20412;-50
2023/09/19 03:51:48;;;;;;;1.00;0.40;;;22.10;50.50;;;;;;4979075;28;20457;-51
2023/09/19 03:54:14;;;;;;;1.00;0.50;;;22.10;50.60;;;;;;4979295;28;20415;-50
2023/09/19 03:56:40;;;;;;;1.00;0.40;;;22.10;50.40;;;;;;4979212;28;20207;-50
2023/09/19 03:59:08;;;;;;;1.00;0.43;;;22.10;50.10;;;;;;4979332;28;20497;-50
2023/09/19 04:01:34;;;;;;;1.00;0.40;;;22.10;50.30;;;;;;4979036;28;20654;-49
2023/09/19 04:04:07;;;;;;;4.10;0.97;;;22.00;50.60;;;;;;4979039;28;20422;-51
2023/09/19 04:06:35;;;;;;;1.00;0.40;;;22.00;50.50;;;;;;4979266;28;20286;-52
2023/09/19 04:09:01;;;;;;;0.90;0.30;;;22.00;50.30;;;;;;4979165;28;20910;-50
2023/09/19 04:11:27;;;;;;;1.10;0.67;;;22.00;50.40;;;;;;4978918;28;20506;-50
2023/09/19 04:13:53;;;;;;;2.03;0.60;;;21.90;50.40;;;;;;4979327;28;20566;-50
2023/09/19 04:16:19;;;;;;;1.10;0.50;;;21.90;50.80;;;;;;4979212;28;20291;-51
2023/09/19 04:18:45;;;;;;;1.00;0.40;;;21.90;50.60;;;;;;4979224;28;21004;-50
2023/09/19 04:21:11;;;;;;;1.00;0.40;;;21.80;50.40;;;;;;4979017;28;21124;-51
2023/09/19 04:23:36;;;;;;;1.10;0.50;;;21.90;50.40;;;;;;4979051;28;20176;-50
2023/09/19 04:26:04;;;;;;;1.00;0.40;;;21.90;50.80;;;;;;4978769;28;20215;-50
2023/09/19 04:28:31;;;;;;;1.10;0.67;;;21.90;50.50;;;;;;4979046;28;20230;-51
2023/09/19 04:30:58;;;;;;;1.00;0.50;;;21.90;50.50;;;;;;4975634;28;20775;-47
2023/09/19 04:33:27;;;;;;;1.83;0.50;;;21.90;50.40;;;;;;4975815;28;20419;-48
2023/09/19 04:35:53;;;;;;;1.00;0.40;;;21.90;50.40;;;;;;4975862;28;20411;-48
2023/09/19 04:38:19;;;;;;;1.00;0.30;;;21.80;50.50;;;;;;4975670;28;20415;-49
2023/09/19 04:40:46;;;;;;;1.00;0.47;;;21.80;50.50;;;;;;4975697;28;20420;-50
2023/09/19 04:43:12;;;;;;;1.30;0.80;;;21.80;50.60;;;;;;4975601;28;20498;-48
2023/09/19 04:45:39;;;;;;;1.00;0.40;;;21.80;50.70;;;;;;4975612;28;20465;-47
2023/09/19 04:48:06;;;;;;;1.93;1.67;;;21.70;50.70;;;;;;4975668;28;20481;-50
2023/09/19 04:50:34;;;;;;;1.27;0.60;;;21.80;50.80;;;;;;4975553;28;20423;-51
2023/09/19 04:53:00;;;;;;;1.00;0.40;;;21.80;50.50;;;;;;4975283;28;20403;-49
2023/09/19 04:55:27;;;;;;;1.10;0.50;;;21.80;50.40;;;;;;4975736;28;20447;-51
2023/09/19 04:57:53;;;;;;;1.00;0.30;;;21.80;50.50;;;;;;4975585;28;20905;-52
2023/09/19 05:00:29;;;;;;;1.10;0.40;;;21.80;50.60;;;;;;4975578;28;20415;-49
2023/09/19 05:02:56;;;;;;;1.00;0.50;;;21.70;50.70;;;;;;4975277;28;20411;-48
2023/09/19 05:05:23;;;;;;;1.00;0.50;;;21.70;50.40;;;;;;4975183;28;20454;-52
2023/09/19 05:07:50;;;;;;;1.10;0.30;;;21.80;50.40;;;;;;4975305;28;20443;-48
2023/09/19 05:10:18;;;;;;;1.10;0.50;;;21.80;50.50;;;;;;4975447;28;20898;-50
2023/09/19 05:12:47;;;;;;;1.00;0.40;;;21.80;50.40;;;;;;4974987;28;20538;-52
2023/09/19 05:15:16;;;;;;;1.00;0.43;;;21.80;50.40;;;;;;4975153;28;20422;-51
2023/09/19 05:17:50;;;;;;;1.10;0.60;;;21.90;50.70;;;;;;4975136;28;20432;-49
2023/09/19 05:20:24;;;;;;;1.10;0.60;;;21.90;50.40;;;;;;4975369;28;20420;-51
2023/09/19 05:22:58;;;;;;;1.00;0.43;;;21.90;50.50;;;;;;4974993;28;21182;-49
2023/09/19 05:25:24;;;;;;;1.00;0.40;;;21.90;50.40;;;;;;4974917;28;20467;-50
2023/09/19 05:27:53;;;;;;;1.10;0.50;;;21.80;50.30;;;;;;4974953;28;20427;-52
2023/09/19 05:30:20;;;;;;;1.00;0.40;;;21.80;50.60;;;;;;4974856;28;20407;-52
2023/09/19 05:32:45;;;;;;;1.07;0.50;;;21.70;50.40;;;;;;4974923;28;20419;-49
2023/09/19 05:35:12;;;;;;;1.10;0.50;;;21.70;50.50;;;;;;4974810;28;20415;-49
2023/09/19 05:37:39;;;;;;;1.10;0.60;;;21.70;50.40;;;;;;4974833;28;20196;-51
2023/09/19 05:40:09;;;;;;;1.00;0.40;;;21.70;50.90;;;;;;4974739;28;20408;-50
2023/09/19 05:42:35;;;;;;;1.00;0.43;;;21.70;50.70;;;;;;4974377;28;20474;-49
2023/09/19 05:45:01;;;;;;;1.00;0.40;;;21.70;50.60;;;;;;4974477;28;20451;-53
2023/09/19 05:47:27;;;;;;;1.10;0.60;;;21.70;50.60;;;;;;4974616;28;20199;-50
2023/09/19 05:49:53;;;;;;;1.00;0.40;;;21.80;50.60;;;;;;4974737;28;20223;-51
2023/09/19 05:52:22;;;;;;;1.00;0.50;;;21.90;50.70;;;;;;4974379;28;20422;-52
2023/09/19 05:54:49;;;;;;;1.00;0.30;;;21.90;50.60;;;;;;4974535;28;20419;-49
2023/09/19 05:57:15;;;;;;;1.00;0.30;;;21.90;50.60;;;;;;4974347;28;20451;-50
2023/09/19 05:59:42;;;;;;;1.00;0.43;;;21.90;50.50;;;;;;4973087;28;20423;-50
2023/09/19 06:02:09;;;;;;;1.00;0.40;;;21.90;50.60;;;;;;4974284;28;20184;-49
2023/09/19 06:04:35;;;;;;;1.30;0.93;;;21.90;50.30;;;;;;4974125;28;20446;-49
2023/09/19 06:07:03;;;;;;;1.10;0.40;;;21.90;50.40;;;;;;4974071;28;20446;-52
2023/09/19 06:09:31;;;;;;;1.00;0.30;;;22.00;50.30;;;;;;4972904;28;20423;-49
2023/09/19 06:11:58;;;;;;;1.00;0.47;;;22.00;50.20;;;;;;4973905;28;20446;-50
2023/09/19 06:14:24;;;;;;;1.00;0.33;;;22.10;50.70;;;;;;4974024;28;20493;-51
2023/09/19 06:16:50;;;;;;;1.07;0.50;;;22.10;50.60;;;;;;4974260;28;20460;-50
2023/09/19 06:19:16;;;;;;;1.00;0.30;;;22.10;50.50;;;;;;4974112;28;20423;-50
2023/09/19 06:21:42;;;;;;;1.30;0.60;;;22.20;50.60;;;;;;4973798;28;20415;-51
2023/09/19 06:24:07;;;;;;;1.00;0.50;;;22.20;50.20;;;;;;4973976;28;20202;-50
2023/09/19 06:26:33;;;;;;;1.30;0.80;;;22.20;50.60;;;;;;4973633;28;20987;-49
2023/09/19 06:28:59;;;;;;;1.00;0.30;;;22.20;50.40;;;;;;4973844;28;20183;-52
2023/09/19 06:31:26;;;;;;;1.00;0.30;;;22.30;50.40;;;;;;4973779;28;20180;-50
2023/09/19 06:33:52;;;;;;;1.00;0.50;;;22.30;50.50;;;;;;4973865;28;20411;-50
2023/09/19 06:36:19;;;;;;;0.97;0.40;;;22.40;50.60;;;;;;4973678;28;20450;-49
2023/09/19 06:38:45;;;;;;;1.00;0.40;;;22.50;50.40;;;;;;4973679;28;20411;-51
2023/09/19 06:41:11;;;;;;;1.00;0.40;;;22.50;50.50;;;;;;4973412;28;20470;-48
2023/09/19 06:43:37;;;;;;;0.97;0.33;;;22.60;50.60;;;;;;4973834;28;20411;-49
2023/09/19 06:46:03;;;;;;;1.00;0.50;;;22.70;49.90;;;;;;4973552;28;20836;-51
2023/09/19 06:48:29;;;;;;;1.00;0.40;;;22.70;49.80;;;;;;4973759;28;20172;-49
2023/09/19 06:50:56;;;;;;;1.07;0.53;;;22.80;49.70;;;;;;4973437;28;20419;-49
2023/09/19 06:53:23;;;;;;;1.07;0.47;;;22.90;49.50;;;;;;4972855;28;20276;-51
2023/09/19 06:55:50;;;;;;;1.00;0.50;;;22.90;49.50;;;;;;4973238;28;20841;-49
2023/09/19 06:58:16;;;;;;;1.00;0.40;;;23.00;49.20;;;;;;4973392;28;20419;-50
2023/09/19 07:00:42;;;;;;;1.00;0.40;;;23.10;48.90;;;;;;4973526;28;20419;-54
2023/09/19 07:03:11;;;;;;;1.10;0.57;;;23.20;49.00;;;;;;4973092;28;20416;-49
2023/09/19 07:05:39;;;;;;;1.20;0.60;;;23.20;48.40;;;;;;4973191;28;20470;-51
2023/09/19 07:08:10;;;;;;;1.03;0.50;;;23.30;47.80;;;;;;4973231;28;20513;-50
2023/09/19 07:10:36;;;;;;;1.40;1.07;;;23.30;47.80;;;;;;4973062;28;20409;-49
2023/09/19 07:13:09;;;;;;;1.00;0.50;;;23.40;46.70;;;;;;4973013;28;20411;-50
2023/09/19 07:15:46;;;;;;;1.00;0.30;;;23.40;46.90;;;;;;4973110;28;20422;-51
2023/09/19 07:18:16;;;;;;;1.00;0.50;;;23.50;47.50;;;;;;4973322;28;20580;-48
2023/09/19 07:20:48;;;;;;;1.10;0.50;;;23.60;47.90;;;;;;4973084;28;20447;-50
2023/09/19 07:23:16;;;;;;;1.00;0.50;;;23.70;47.80;;;;;;4972894;28;20419;-53
2023/09/19 07:25:41;;;;;;;1.10;0.50;;;23.70;46.30;;;;;;4972834;28;20468;-50
2023/09/19 07:28:07;;;;;;;1.10;0.50;;;23.70;46.70;;;;;;4973171;28;20431;-51
2023/09/19 07:30:37;;;;;;;1.40;0.80;;;23.80;46.00;;;;;;4973159;28;20558;-51
2023/09/19 07:33:04;;;;;;;1.20;0.50;;;23.90;45.00;;;;;;4972880;28;20266;-49
2023/09/19 07:35:31;;;;;;;1.00;0.37;;;23.90;44.00;;;;;;4972891;28;20821;-50
2023/09/19 07:38:01;;;;;;;1.20;0.70;;;23.90;43.90;;;;;;4972888;28;20437;-51
2023/09/19 07:40:28;;;;;;;1.00;0.40;;;24.00;43.80;;;;;;4973096;28;20412;-51
2023/09/19 07:43:01;;;;;;;1.00;0.40;;;24.10;43.10;;;;;;4972816;28;20418;-48
2023/09/19 07:45:29;;;;;;;1.00;0.40;;;24.20;40.20;;;;;;4972941;28;20538;-52
2023/09/19 07:47:56;;;;;;;1.00;0.40;;;24.20;40.30;;;;;;4972739;28;20441;-50
2023/09/19 07:50:22;;;;;;;1.27;0.73;;;24.20;40.30;;;;;;4972816;28;20442;-51
2023/09/19 07:52:53;;;;;;;1.00;0.40;;;24.30;40.80;;;;;;4972808;28;20412;-51
2023/09/19 07:55:23;;;;;;;1.10;0.50;;;24.30;38.60;;;;;;4973012;28;20415;-50
2023/09/19 07:57:49;;;;;;;1.00;0.40;;;24.30;39.10;;;;;;4972809;28;20467;-52
2023/09/19 08:00:15;;;;;;;1.00;0.40;;;24.30;40.30;;;;;;4972821;28;20442;-50
2023/09/19 08:02:42;;;;;;;1.20;0.50;;;24.40;39.60;;;;;;4972539;28;20418;-50
2023/09/19 08:05:12;;;;;;;1.00;0.30;;;24.40;39.10;;;;;;4973326;28;20562;-50
2023/09/19 08:07:39;;;;;;;1.00;0.50;;;24.40;40.20;;;;;;4976520;28;20497;-49
2023/09/19 08:10:11;;;;;;;1.10;0.50;;;24.50;40.40;;;;;;4976477;28;20419;-51
2023/09/19 08:12:37;;;;;;;1.00;0.40;;;24.60;40.40;;;;;;4976233;28;20403;-52
2023/09/19 08:15:03;;;;;;;1.00;0.30;;;24.70;40.20;;;;;;4976423;28;20466;-50
2023/09/19 08:17:34;;;;;;;1.10;0.43;;;24.80;39.50;;;;;;4976179;28;20682;-50
2023/09/19 08:20:00;;;;;;;1.10;0.50;;;24.90;39.80;;;;;;4976359;28;20422;-52
2023/09/19 08:22:27;;;;;;;1.10;0.40;;;25.00;39.00;;;;;;4976100;28;20473;-50
2023/09/19 08:24:52;;;;;;;1.00;0.40;;;25.00;39.00;;;;;;4975985;28;20459;-49
2023/09/19 08:27:19;;;;;;;1.10;0.40;;;25.10;38.60;;;;;;4975940;28;20462;-51
2023/09/19 08:29:46;;;;;;;1.00;0.40;;;25.20;39.10;;;;;;4975947;28;20191;-48
2023/09/19 08:32:12;;;;;;;1.10;0.50;;;25.30;39.00;;;;;;4975919;28;20414;-48
2023/09/19 08:34:38;;;;;;;1.00;0.40;;;25.40;38.80;;;;;;4976148;28;20415;-51
2023/09/19 08:37:04;;;;;;;1.20;0.60;;;25.50;37.20;;;;;;4975993;28;20240;-52
2023/09/19 08:39:33;;;;;;;1.00;0.40;;;25.60;37.80;;;;;;4976013;28;20416;-50
2023/09/19 08:42:00;;;;;;;1.20;0.60;;;25.60;38.30;;;;;;4975515;28;20451;-52
2023/09/19 08:44:30;;;;;;;1.10;0.60;;;25.60;36.50;;;;;;4975655;28;20542;-50
2023/09/19 08:47:09;;;;;;;1.00;0.40;;;25.50;37.10;;;;;;4974416;28;21029;-50
2023/09/19 08:49:45;;;;;;;1.10;0.40;;;25.40;36.90;;;;;;4975777;28;20407;-51
2023/09/19 08:52:20;;;;;;;2.07;0.77;;;25.20;37.20;;;;;;4975537;28;20411;-48
2023/09/19 08:54:51;;;;;;;1.00;0.43;;;25.10;37.80;;;;;;4975790;28;20406;-50
2023/09/19 08:57:21;;;;;;;1.00;0.40;;;25.00;38.10;;;;;;4975559;28;20431;-48
2023/09/19 08:59:49;;;;;;;1.00;0.50;;;25.00;39.40;;;;;;4975541;28;20411;-51
2023/09/19 09:02:18;;;;;;;1.10;0.50;;;25.00;38.50;;;;;;4975254;28;20463;-48
2023/09/19 09:04:47;;;;;;;1.00;0.43;;;25.10;38.30;;;;;;4975309;28;20497;-52
2023/09/19 09:07:14;;;;;;;1.00;0.30;;;25.20;38.10;;;;;;4975151;28;20435;-50
2023/09/19 09:09:44;;;;;;;1.10;0.50;;;25.30;38.60;;;;;;4975471;28;20411;-50
2023/09/19 09:12:13;;;;;;;1.00;0.40;;;25.50;38.00;;;;;;4975226;28;20403;-51
2023/09/19 09:14:49;;;;;;;1.00;0.40;;;25.70;37.80;;;;;;4975277;28;20407;-50
2023/09/19 09:17:20;;;;;;;1.10;0.43;;;25.80;37.10;;;;;;4974584;28;20446;-51
2023/09/19 09:19:47;;;;;;;1.00;0.30;;;26.00;37.60;;;;;;4975079;28;20856;-49
2023/09/19 09:22:13;;;;;;;1.00;0.40;;;26.10;35.30;;;;;;4974929;28;20958;-49
2023/09/19 09:24:54;;;;;;;1.10;0.50;;;26.10;36.40;;;;;;4974898;28;20451;-52
2023/09/19 09:27:20;;;;;;;1.77;0.60;;;26.10;36.80;;;;;;4974929;28;20278;-49
2023/09/19 09:29:50;;;;;;;1.57;0.40;;;25.90;35.70;;;;;;4975076;28;20486;-53
2023/09/19 09:32:26;;;;;;;1.00;0.50;;;25.80;34.20;;;;;;4974727;28;20411;-52
2023/09/19 09:34:57;;;;;;;1.10;0.50;;;25.70;35.20;;;;;;4974789;28;20461;-53
2023/09/19 09:37:24;;;;;;;1.10;0.50;;;25.50;35.80;;;;;;4974912;28;20431;-51
2023/09/19 09:39:58;;;;;;;1.00;0.30;;;25.50;35.30;;;;;;4974838;28;20415;-51
2023/09/19 09:42:32;;;;;;;1.00;0.40;;;25.40;35.10;;;;;;4974561;28;20466;-53
2023/09/19 09:45:17;;;;;;;1.10;0.40;;;25.40;36.10;;;;;;4974555;28;20491;-49
2023/09/19 09:47:49;;;;;;;1.00;0.40;;;25.40;37.00;;;;;;4974732;28;20435;-50
2023/09/19 09:50:29;;;;;;;1.07;0.43;;;25.50;35.00;;;;;;4974693;28;20435;-52
2023/09/19 09:53:06;;;;;;;1.00;0.40;;;25.70;34.90;;;;;;4974251;28;20414;-51
2023/09/19 09:56:06;;;;;;;1.00;0.40;;;25.70;35.90;;;;;;4974712;28;20442;-48
2023/09/19 09:58:54;;;;;;;1.00;0.40;;;25.90;35.00;;;;;;4974547;28;20422;-52
2023/09/19 10:01:21;;;;;;;1.30;0.77;;;25.90;35.70;;;;;;4974067;28;20426;-50
2023/09/19 10:03:51;;;;;;;1.00;0.30;;;26.10;36.30;;;;;;4974559;28;20442;-52
2023/09/19 10:09:11;;;;;;;1.00;0.33;;;26.30;35.80;;;;;;4974433;28;20408;-49
2023/09/19 10:11:44;;;;;;;1.10;0.50;;;26.30;35.40;;;;;;4973930;28;20470;-50
2023/09/19 10:14:12;;;;;;;1.00;0.40;;;26.40;35.60;;;;;;4974358;28;20498;-52
2023/09/19 10:16:46;;;;;;;1.00;0.30;;;26.50;36.00;;;;;;4974249;28;20435;-50
2023/09/19 10:19:24;;;;;;;1.00;0.33;;;26.60;34.80;;;;;;4974168;28;20418;-49
2023/09/19 10:21:51;;;;;;;1.00;0.40;;;26.70;35.20;;;;;;4973892;28;20411;-51
2023/09/19 10:24:17;;;;;;;1.50;0.57;;;26.90;35.10;;;;;;4973740;28;20463;-50
2023/09/19 10:26:45;;;;;;;1.03;0.47;;;26.90;33.90;;;;;;4973718;28;20462;-50
2023/09/19 10:29:16;;;;;;;1.10;0.50;;;27.00;33.30;;;;;;4973201;28;20815;-52
2023/09/19 10:31:48;;;;;;;1.00;0.40;;;27.00;34.00;;;;;;4973658;28;20770;-52
2023/09/19 10:34:15;;;;;;;1.00;0.40;;;27.10;34.50;;;;;;4973872;28;20847;-49
2023/09/19 10:36:45;;;;;;;1.00;0.30;;;27.20;34.70;;;;;;4973693;28;20428;-52
2023/09/19 10:39:18;;;;;;;1.00;0.30;;;27.30;34.30;;;;;;4973960;28;20411;-53
2023/09/19 10:41:53;;;;;;;1.00;0.30;;;27.40;31.60;;;;;;4973596;28;20782;-49
2023/09/19 10:44:25;;;;;;;1.20;0.60;;;27.40;33.10;;;;;;4973532;28;20825;-51
2023/09/19 10:46:52;;;;;;;1.00;0.37;;;27.50;31.20;;;;;;4973516;28;20473;-51
2023/09/19 10:49:22;;;;;;;1.00;0.40;;;27.40;32.20;;;;;;4973618;28;20983;-50
2023/09/19 10:51:54;;;;;;;0.97;0.30;;;27.40;32.20;;;;;;4973492;28;20406;-49
2023/09/19 10:54:26;;;;;;;2.90;0.50;;;27.50;31.70;;;;;;4973459;28;20415;-52
2023/09/19 10:56:53;;;;;;;1.37;0.50;;;27.50;31.10;;;;;;4973458;28;20424;-50
2023/09/19 10:59:21;;;;;;;1.00;0.40;;;27.60;32.00;;;;;;4973398;28;20980;-51
2023/09/19 11:01:56;;;;;;;1.00;0.40;;;27.80;31.40;;;;;;4973089;28;20474;-51
2023/09/19 11:04:29;;;;;;;1.73;0.60;;;27.90;31.90;;;;;;4973504;28;20486;-53
2023/09/19 11:07:04;;;;;;;1.20;0.47;;;28.10;31.10;;;;;;4973261;28;20420;-49
2023/09/19 11:09:58;;;;;;;2.13;0.93;;;28.10;32.40;;;;;;4973334;28;20407;-50
2023/09/19 11:12:45;;;;;;;1.10;0.50;;;28.40;32.60;;;;;;4973290;28;20414;-50
2023/09/19 11:15:49;;;;;;;1.00;0.40;;;28.30;31.50;;;;;;4973455;28;20490;-50
2023/09/19 11:18:40;;;;;;;1.00;0.40;;;28.20;31.70;;;;;;4973090;28;20450;-52
2023/09/19 11:21:29;;;;;;;1.00;0.30;;;28.10;30.60;;;;;;4973285;28;20407;-53
2023/09/19 11:24:10;;;;;;;5.33;1.00;;;27.90;30.60;;;;;;4973202;28;20479;-52
2023/09/19 11:26:47;;;;;;;1.20;0.57;;;27.70;31.40;;;;;;4972927;28;20482;-51
2023/09/19 11:29:30;;;;;;;1.97;0.87;;;27.60;27.50;;;;;;4973022;28;20407;-52
2023/09/19 11:31:59;;;;;;;1.23;0.70;;;27.40;30.20;;;;;;4972994;28;20403;-51
2023/09/19 11:34:37;;;;;;;1.00;0.40;;;27.40;31.50;;;;;;4973074;28;20418;-50
2023/09/19 11:37:15;;;;;;;1.00;0.37;;;27.50;31.10;;;;;;4972830;28;20431;-52
2023/09/19 11:40:16;;;;;;;1.00;0.40;;;27.60;30.20;;;;;;4974365;28;20415;-50
2023/09/19 11:42:47;;;;;;;1.00;0.30;;;27.60;29.40;;;;;;4976871;28;20509;-53
2023/09/19 11:45:49;;;;;;;1.00;0.30;;;27.50;29.40;;;;;;4976809;28;20841;-50
2023/09/19 11:48:18;;;;;;;1.00;0.40;;;27.60;29.30;;;;;;4977086;28;20398;-50
2023/09/19 11:50:47;;;;;;;1.10;0.40;;;27.60;26.70;;;;;;4976846;28;20403;-50
2023/09/19 11:53:13;;;;;;;1.20;0.53;;;27.60;27.80;;;;;;4976678;28;20403;-52
2023/09/19 11:55:43;;;;;;;1.10;0.70;;;27.50;27.20;;;;;;4976716;28;20506;-49
2023/09/19 11:58:09;;;;;;;1.00;0.40;;;27.50;28.00;;;;;;4976583;28;20498;-53
2023/09/19 12:00:39;;;;;;;1.60;0.50;;;27.60;28.30;;;;;;4976496;28;20494;-50
2023/09/19 12:03:13;;;;;;;1.37;0.73;;;27.70;29.50;;;;;;4976507;28;20207;-52
2023/09/19 12:05:40;;;;;;;1.37;0.60;;;27.90;29.60;;;;;;4976567;28;20566;-50
2023/09/19 12:08:08;;;;;;;1.03;0.40;;;28.10;30.50;;;;;;4976444;28;20431;-51
2023/09/19 12:10:57;;;;;;;1.00;0.33;;;28.10;28.90;;;;;;4976361;28;20430;-51
2023/09/19 12:13:24;;;;;;;1.20;0.30;;;28.10;30.50;;;;;;4976277;28;20486;-50
2023/09/19 12:15:50;;;;;;;1.00;0.30;;;28.10;31.40;;;;;;4976342;28;20518;-52
2023/09/19 12:18:31;;;;;;;1.10;0.50;;;28.20;31.00;;;;;;4976391;28;20925;-50
2023/09/19 12:20:58;;;;;;;1.20;0.60;;;28.20;30.40;;;;;;4976068;28;20176;-49
2023/09/19 12:23:25;;;;;;;1.00;0.30;;;28.10;30.30;;;;;;4975987;28;20417;-51
2023/09/19 12:25:53;;;;;;;1.10;0.50;;;28.10;30.40;;;;;;4976035;28;20550;-52
2023/09/19 12:28:23;;;;;;;1.30;0.70;;;28.20;30.80;;;;;;4976152;28;20411;-53
2023/09/19 12:30:49;;;;;;;1.10;0.40;;;28.30;31.20;;;;;;4975942;28;20416;-50
2023/09/19 12:33:21;;;;;;;1.20;0.70;;;28.40;30.30;;;;;;4975750;28;20817;-53
2023/09/19 12:35:47;;;;;;;1.00;0.40;;;28.50;28.30;;;;;;4975980;28;20922;-50
2023/09/19 12:38:28;;;;;;;1.00;0.40;;;28.50;28.00;;;;;;4976010;28;20558;-49
2023/09/19 12:41:01;;;;;;;1.00;0.30;;;28.50;30.80;;;;;;4975945;28;20620;-51
2023/09/19 12:43:33;;;;;;;1.30;0.60;;;28.70;30.80;;;;;;4975711;28;20443;-50
2023/09/19 12:45:59;;;;;;;1.17;0.50;;;28.70;29.60;;;;;;4975452;28;20451;-53
2023/09/19 12:48:31;;;;;;;1.00;0.30;;;28.60;28.00;;;;;;4975941;28;20469;-51
2023/09/19 12:51:08;;;;;;;1.30;0.80;;;28.50;28.00;;;;;;4974926;28;20435;-53
2023/09/19 12:53:40;;;;;;;1.07;0.43;;;28.50;29.90;;;;;;4975638;28;20769;-50
2023/09/19 12:56:08;;;;;;;1.27;0.63;;;28.40;28.80;;;;;;4975510;28;20454;-50
2023/09/19 12:58:34;;;;;;;1.10;0.40;;;28.40;28.60;;;;;;4975594;28;20408;-52
2023/09/19 13:01:02;;;;;;;1.00;0.40;;;28.40;30.20;;;;;;4975605;28;20427;-49
2023/09/19 13:03:31;;;;;;;1.00;0.37;;;28.50;29.30;;;;;;4975421;28;20459;-51
2023/09/19 13:06:02;;;;;;;1.00;0.30;;;28.60;30.60;;;;;;4975269;28;20976;-50